Aviation Digital Data Service (ADDS)

Output produced by METARs form (1212 UTC 15 November 2018)
found at http://www.aviationweather.gov/metar/data/
 
KWJF 151123Z 1512/1612 VRB03KT P6SM SKC 
     FM151800 05008KT P6SM SCT250 
     FM152300 27006KT P6SM SCT250 
     FM160500 VRB03KT P6SM SKC
       
KWMC 151124Z 1512/1612 VRB04KT P6SM SCT250
       
TAF AMD KWRB 151148Z 1511/1611 34009KT 8000 -RA OVC010 QNH3007INS 
     BECMG 1515/1516 29012G18KT 9999 NSW OVC010 QNH3005INS 
     BECMG 1517/1518 29010G15KT 9999 BKN015 QNH3006INS 
     BECMG 1523/1524 29012KT 9999 SCT015 BKN020 QNH3010INS TX11/1518Z TN07/1512Z
       
TAF KWRI 151000Z 1510/1616 05009KT 9999 SCT030 BKN220 QNH3043INS 
     BECMG 1515/1516 06012KT 6000 -RASN BKN015 OVC030 620209 520706 QNH3010INS 
     BECMG 1520/1521 07012G18KT 3200 -RA BKN007 621005 530609 QNH2989INS 
     BECMG 1600/1601 07012G20KT 4800 -RA BKN005 QNH2937INS 
     BECMG 1609/1610 27020G30KT 8000 -RA BKN010 OVC020 510002 QNH2937INS 
     BECMG 1614/1615 27020G30KT 9999 NSW BKN020 510002 QNH2970INS TX09/1609Z
TN00/1510Z
       
KWRL 151124Z 1512/1612 VRB05KT P6SM FEW140 SCT200 
     FM152000 15007KT P6SM FEW120 SCT200